sensor_id;sensor_type;location;lat;lon;timestamp;temperature;humidity
56123;DHT22;42426;46.104;19.656;2022-12-07T00:01:35;77.70;2227.20
56123;DHT22;42426;46.104;19.656;2022-12-07T00:04:03;77.70;2227.20
56123;DHT22;42426;46.104;19.656;2022-12-07T00:06:38;77.70;2227.20
56123;DHT22;42426;46.104;19.656;2022-12-07T00:09:06;102.40;2227.20
56123;DHT22;42426;46.104;19.656;2022-12-07T00:11:33;77.70;2227.20
56123;DHT22;42426;46.104;19.656;2022-12-07T00:14:01;77.70;2227.20
56123;DHT22;42426;46.104;19.656;2022-12-07T00:16:30;77.70;2227.20
56123;DHT22;42426;46.104;19.656;2022-12-07T00:18:57;77.70;2227.20
56123;DHT22;42426;46.104;19.656;2022-12-07T00:21:25;77.70;2227.20
56123;DHT22;42426;46.104;19.656;2022-12-07T00:23:53;77.70;2227.20
56123;DHT22;42426;46.104;19.656;2022-12-07T00:26:28;77.60;2227.20
56123;DHT22;42426;46.104;19.656;2022-12-07T00:29:00;77.60;2227.20
56123;DHT22;42426;46.104;19.656;2022-12-07T00:31:28;77.60;2227.20
56123;DHT22;42426;46.104;19.656;2022-12-07T00:33:55;77.60;2227.20
56123;DHT22;42426;46.104;19.656;2022-12-07T00:36:24;77.60;2227.20
56123;DHT22;42426;46.104;19.656;2022-12-07T00:38:50;77.60;2227.20
56123;DHT22;42426;46.104;19.656;2022-12-07T00:41:18;77.50;2227.20
56123;DHT22;42426;46.104;19.656;2022-12-07T00:43:45;77.60;2227.20
56123;DHT22;42426;46.104;19.656;2022-12-07T00:46:12;77.60;2227.20
56123;DHT22;42426;46.104;19.656;2022-12-07T00:48:38;77.60;2227.20
56123;DHT22;42426;46.104;19.656;2022-12-07T00:51:08;102.40;2227.20
56123;DHT22;42426;46.104;19.656;2022-12-07T00:53:35;77.60;2227.20
56123;DHT22;42426;46.104;19.656;2022-12-07T00:56:06;77.60;2227.20
56123;DHT22;42426;46.104;19.656;2022-12-07T00:58:32;77.50;2227.20
56123;DHT22;42426;46.104;19.656;2022-12-07T01:01:00;77.40;2227.20
56123;DHT22;42426;46.104;19.656;2022-12-07T01:03:28;77.40;2227.20
56123;DHT22;42426;46.104;19.656;2022-12-07T01:05:54;77.40;2227.20
56123;DHT22;42426;46.104;19.656;2022-12-07T01:08:22;77.50;2227.20
56123;DHT22;42426;46.104;19.656;2022-12-07T01:10:49;77.50;2227.20
56123;DHT22;42426;46.104;19.656;2022-12-07T01:13:15;77.40;2227.20
56123;DHT22;42426;46.104;19.656;2022-12-07T01:15:43;77.40;2227.20
56123;DHT22;42426;46.104;19.656;2022-12-07T01:18:09;77.40;2227.20
56123;DHT22;42426;46.104;19.656;2022-12-07T01:20:35;77.40;2227.20
56123;DHT22;42426;46.104;19.656;2022-12-07T01:23:00;77.40;2227.20
56123;DHT22;42426;46.104;19.656;2022-12-07T01:25:27;77.30;2227.20
56123;DHT22;42426;46.104;19.656;2022-12-07T01:27:53;77.30;2227.20
56123;DHT22;42426;46.104;19.656;2022-12-07T01:30:18;77.30;2227.20
56123;DHT22;42426;46.104;19.656;2022-12-07T01:32:44;77.30;2227.20
56123;DHT22;42426;46.104;19.656;2022-12-07T01:35:10;77.30;2227.20
56123;DHT22;42426;46.104;19.656;2022-12-07T01:37:37;77.30;2227.20
56123;DHT22;42426;46.104;19.656;2022-12-07T01:40:05;77.20;2227.20
56123;DHT22;42426;46.104;19.656;2022-12-07T01:42:31;77.20;2227.20
56123;DHT22;42426;46.104;19.656;2022-12-07T01:48:02;77.20;2227.20
56123;DHT22;42426;46.104;19.656;2022-12-07T01:50:29;77.10;2227.20
56123;DHT22;42426;46.104;19.656;2022-12-07T01:52:59;77.20;2227.20
56123;DHT22;42426;46.104;19.656;2022-12-07T01:55:26;77.10;2227.20
56123;DHT22;42426;46.104;19.656;2022-12-07T01:57:54;77.10;2227.20
56123;DHT22;42426;46.104;19.656;2022-12-07T02:00:20;77.10;2227.20
56123;DHT22;42426;46.104;19.656;2022-12-07T02:03:00;77.10;2227.20
56123;DHT22;42426;46.104;19.656;2022-12-07T02:05:29;77.10;2227.20
56123;DHT22;42426;46.104;19.656;2022-12-07T02:07:57;77.10;2227.20
56123;DHT22;42426;46.104;19.656;2022-12-07T02:10:30;77.10;2227.20
56123;DHT22;42426;46.104;19.656;2022-12-07T02:13:08;77.00;2227.20
56123;DHT22;42426;46.104;19.656;2022-12-07T02:18:37;77.00;2227.20
56123;DHT22;42426;46.104;19.656;2022-12-07T02:29:48;76.90;2227.20
56123;DHT22;42426;46.104;19.656;2022-12-07T02:35:24;76.90;2227.20
56123;DHT22;42426;46.104;19.656;2022-12-07T02:43:47;76.90;2227.20
56123;DHT22;42426;46.104;19.656;2022-12-07T02:46:20;76.80;2227.20
56123;DHT22;42426;46.104;19.656;2022-12-07T02:48:47;76.80;2227.20
56123;DHT22;42426;46.104;19.656;2022-12-07T02:51:17;76.90;2227.20
56123;DHT22;42426;46.104;19.656;2022-12-07T02:53:43;76.90;2227.20
56123;DHT22;42426;46.104;19.656;2022-12-07T02:56:22;76.80;2227.20
56123;DHT22;42426;46.104;19.656;2022-12-07T03:09:57;76.80;2227.20
56123;DHT22;42426;46.104;19.656;2022-12-07T03:15:16;76.80;2227.20
56123;DHT22;42426;46.104;19.656;2022-12-07T03:17:46;76.80;2227.20
56123;DHT22;42426;46.104;19.656;2022-12-07T03:20:17;76.80;2227.20
56123;DHT22;42426;46.104;19.656;2022-12-07T03:22:44;76.80;2227.20
56123;DHT22;42426;46.104;19.656;2022-12-07T03:25:15;76.80;2227.20
56123;DHT22;42426;46.104;19.656;2022-12-07T03:33:43;76.80;2227.20
56123;DHT22;42426;46.104;19.656;2022-12-07T03:36:28;76.80;2227.20
56123;DHT22;42426;46.104;19.656;2022-12-07T03:39:23;76.80;2227.20
56123;DHT22;42426;46.104;19.656;2022-12-07T03:41:47;76.80;2227.20
56123;DHT22;42426;46.104;19.656;2022-12-07T03:44:14;76.80;2227.20
56123;DHT22;42426;46.104;19.656;2022-12-07T03:46:44;76.80;2227.20
56123;DHT22;42426;46.104;19.656;2022-12-07T03:52:22;76.80;2227.20
56123;DHT22;42426;46.104;19.656;2022-12-07T03:57:28;52.10;2227.20
56123;DHT22;42426;46.104;19.656;2022-12-07T03:59:57;52.10;2227.20
56123;DHT22;42426;46.104;19.656;2022-12-07T04:02:25;52.10;2227.20
56123;DHT22;42426;46.104;19.656;2022-12-07T04:04:52;52.10;2227.20
56123;DHT22;42426;46.104;19.656;2022-12-07T04:07:17;52.00;2227.20
56123;DHT22;42426;46.104;19.656;2022-12-07T04:09:45;52.00;2227.20
56123;DHT22;42426;46.104;19.656;2022-12-07T04:12:11;52.00;2227.20
56123;DHT22;42426;46.104;19.656;2022-12-07T04:14:37;52.00;2227.20
56123;DHT22;42426;46.104;19.656;2022-12-07T04:17:03;52.00;2227.20
56123;DHT22;42426;46.104;19.656;2022-12-07T04:19:31;52.00;2227.20
56123;DHT22;42426;46.104;19.656;2022-12-07T04:21:59;52.00;2227.20
56123;DHT22;42426;46.104;19.656;2022-12-07T04:24:26;52.00;2227.20
56123;DHT22;42426;46.104;19.656;2022-12-07T04:26:52;52.00;2227.20
56123;DHT22;42426;46.104;19.656;2022-12-07T04:29:20;52.00;2227.20
56123;DHT22;42426;46.104;19.656;2022-12-07T04:31:46;52.00;2227.20
56123;DHT22;42426;46.104;19.656;2022-12-07T04:34:13;52.00;2227.20
56123;DHT22;42426;46.104;19.656;2022-12-07T04:36:39;52.00;2227.20
56123;DHT22;42426;46.104;19.656;2022-12-07T04:39:07;52.00;2227.20
56123;DHT22;42426;46.104;19.656;2022-12-07T04:41:33;52.00;2227.20
56123;DHT22;42426;46.104;19.656;2022-12-07T04:44:01;52.00;2227.20
56123;DHT22;42426;46.104;19.656;2022-12-07T04:46:28;52.00;2227.20
56123;DHT22;42426;46.104;19.656;2022-12-07T04:48:55;51.90;2227.20
56123;DHT22;42426;46.104;19.656;2022-12-07T04:51:24;51.90;2227.20
56123;DHT22;42426;46.104;19.656;2022-12-07T04:53:50;51.90;2227.20
56123;DHT22;42426;46.104;19.656;2022-12-07T04:56:16;51.90;2227.20
56123;DHT22;42426;46.104;19.656;2022-12-07T04:58:43;51.90;2227.20
56123;DHT22;42426;46.104;19.656;2022-12-07T05:01:09;51.90;2227.20
56123;DHT22;42426;46.104;19.656;2022-12-07T05:03:36;51.80;2227.20
56123;DHT22;42426;46.104;19.656;2022-12-07T05:06:03;51.80;2227.20
56123;DHT22;42426;46.104;19.656;2022-12-07T05:08:32;51.80;2227.20
56123;DHT22;42426;46.104;19.656;2022-12-07T05:10:59;51.80;2227.20
56123;DHT22;42426;46.104;19.656;2022-12-07T05:13:24;51.80;2227.20
56123;DHT22;42426;46.104;19.656;2022-12-07T05:15:50;51.80;2227.20
56123;DHT22;42426;46.104;19.656;2022-12-07T05:18:16;51.80;2227.20
56123;DHT22;42426;46.104;19.656;2022-12-07T05:20:42;51.70;2227.20
56123;DHT22;42426;46.104;19.656;2022-12-07T05:23:08;51.70;2227.20
56123;DHT22;42426;46.104;19.656;2022-12-07T05:25:34;51.70;2227.20
56123;DHT22;42426;46.104;19.656;2022-12-07T05:28:02;51.80;2227.20
56123;DHT22;42426;46.104;19.656;2022-12-07T05:30:28;51.80;2227.20
56123;DHT22;42426;46.104;19.656;2022-12-07T05:32:54;51.80;2227.20
56123;DHT22;42426;46.104;19.656;2022-12-07T05:35:20;51.70;2227.20
56123;DHT22;42426;46.104;19.656;2022-12-07T05:37:46;51.70;2227.20
56123;DHT22;42426;46.104;19.656;2022-12-07T05:40:13;51.70;2227.20
56123;DHT22;42426;46.104;19.656;2022-12-07T05:42:40;51.70;2227.20
56123;DHT22;42426;46.104;19.656;2022-12-07T05:45:06;51.70;2227.20
56123;DHT22;42426;46.104;19.656;2022-12-07T05:47:32;51.70;2227.20
56123;DHT22;42426;46.104;19.656;2022-12-07T05:49:58;51.70;2227.20
56123;DHT22;42426;46.104;19.656;2022-12-07T05:52:25;51.70;2227.20
56123;DHT22;42426;46.104;19.656;2022-12-07T05:54:51;51.70;2227.20
56123;DHT22;42426;46.104;19.656;2022-12-07T05:57:18;51.70;2227.20
56123;DHT22;42426;46.104;19.656;2022-12-07T05:59:43;51.70;2227.20
56123;DHT22;42426;46.104;19.656;2022-12-07T06:02:12;51.70;2227.20
56123;DHT22;42426;46.104;19.656;2022-12-07T06:04:40;51.70;2227.20
56123;DHT22;42426;46.104;19.656;2022-12-07T06:07:06;51.70;2227.20
56123;DHT22;42426;46.104;19.656;2022-12-07T06:09:33;51.70;2227.20
56123;DHT22;42426;46.104;19.656;2022-12-07T06:11:59;51.60;2227.20
56123;DHT22;42426;46.104;19.656;2022-12-07T06:14:45;51.60;2227.20
56123;DHT22;42426;46.104;19.656;2022-12-07T06:17:12;51.60;2227.20
56123;DHT22;42426;46.104;19.656;2022-12-07T06:19:38;51.60;2227.20
56123;DHT22;42426;46.104;19.656;2022-12-07T06:22:04;51.60;2227.20
56123;DHT22;42426;46.104;19.656;2022-12-07T06:24:31;51.60;2227.20
56123;DHT22;42426;46.104;19.656;2022-12-07T06:26:57;51.60;2227.20
56123;DHT22;42426;46.104;19.656;2022-12-07T06:29:23;51.60;2227.20
56123;DHT22;42426;46.104;19.656;2022-12-07T06:31:49;51.60;2227.20
56123;DHT22;42426;46.104;19.656;2022-12-07T06:34:20;51.60;2227.20
56123;DHT22;42426;46.104;19.656;2022-12-07T06:36:48;51.60;2227.20
56123;DHT22;42426;46.104;19.656;2022-12-07T06:39:18;51.60;2227.20
56123;DHT22;42426;46.104;19.656;2022-12-07T06:41:44;51.60;2227.20
56123;DHT22;42426;46.104;19.656;2022-12-07T06:44:10;51.60;2227.20
56123;DHT22;42426;46.104;19.656;2022-12-07T06:46:36;51.60;2227.20
56123;DHT22;42426;46.104;19.656;2022-12-07T06:49:03;51.60;2227.20
56123;DHT22;42426;46.104;19.656;2022-12-07T06:51:29;51.60;2227.20
56123;DHT22;42426;46.104;19.656;2022-12-07T06:53:55;51.60;2227.20
56123;DHT22;42426;46.104;19.656;2022-12-07T06:56:21;51.60;2227.20
56123;DHT22;42426;46.104;19.656;2022-12-07T06:58:48;51.60;2227.20
56123;DHT22;42426;46.104;19.656;2022-12-07T07:01:16;51.60;2227.20
56123;DHT22;42426;46.104;19.656;2022-12-07T07:03:44;51.60;2227.20
56123;DHT22;42426;46.104;19.656;2022-12-07T07:06:10;51.60;2227.20
56123;DHT22;42426;46.104;19.656;2022-12-07T07:08:38;51.60;2227.20
56123;DHT22;42426;46.104;19.656;2022-12-07T07:11:05;51.70;2227.20
56123;DHT22;42426;46.104;19.656;2022-12-07T07:13:30;51.70;2227.20
56123;DHT22;42426;46.104;19.656;2022-12-07T07:15:56;51.70;2227.20
56123;DHT22;42426;46.104;19.656;2022-12-07T07:18:22;51.70;2227.20
56123;DHT22;42426;46.104;19.656;2022-12-07T07:20:48;51.70;2227.20
56123;DHT22;42426;46.104;19.656;2022-12-07T07:23:15;51.70;2227.20
56123;DHT22;42426;46.104;19.656;2022-12-07T07:25:40;51.80;2227.20
56123;DHT22;42426;46.104;19.656;2022-12-07T07:28:06;51.80;2227.20
56123;DHT22;42426;46.104;19.656;2022-12-07T07:30:33;51.80;2227.20
56123;DHT22;42426;46.104;19.656;2022-12-07T07:33:00;51.80;2227.20
56123;DHT22;42426;46.104;19.656;2022-12-07T07:35:30;51.90;2227.20
56123;DHT22;42426;46.104;19.656;2022-12-07T07:37:56;51.80;2227.20
56123;DHT22;42426;46.104;19.656;2022-12-07T07:40:23;51.80;2227.20
56123;DHT22;42426;46.104;19.656;2022-12-07T07:42:53;51.90;2227.20
56123;DHT22;42426;46.104;19.656;2022-12-07T07:45:21;51.90;2227.20
56123;DHT22;42426;46.104;19.656;2022-12-07T07:47:47;52.00;2227.20
56123;DHT22;42426;46.104;19.656;2022-12-07T07:50:13;52.00;2227.20
56123;DHT22;42426;46.104;19.656;2022-12-07T07:52:40;52.10;2227.20
56123;DHT22;42426;46.104;19.656;2022-12-07T07:55:06;52.10;2227.20
56123;DHT22;42426;46.104;19.656;2022-12-07T07:57:34;52.10;2227.20
56123;DHT22;42426;46.104;19.656;2022-12-07T08:00:01;52.10;2227.20
56123;DHT22;42426;46.104;19.656;2022-12-07T08:02:26;76.80;2227.20
56123;DHT22;42426;46.104;19.656;2022-12-07T08:04:55;76.80;2227.20
56123;DHT22;42426;46.104;19.656;2022-12-07T08:07:21;76.80;2227.20
56123;DHT22;42426;46.104;19.656;2022-12-07T08:09:47;76.80;2227.20
56123;DHT22;42426;46.104;19.656;2022-12-07T08:12:12;76.80;2227.20
56123;DHT22;42426;46.104;19.656;2022-12-07T08:14:38;76.90;2227.20
56123;DHT22;42426;46.104;19.656;2022-12-07T08:17:04;77.00;2227.20
56123;DHT22;42426;46.104;19.656;2022-12-07T08:19:31;77.00;2227.20
56123;DHT22;42426;46.104;19.656;2022-12-07T08:21:56;77.10;2227.20
56123;DHT22;42426;46.104;19.656;2022-12-07T08:24:23;77.10;2227.20
56123;DHT22;42426;46.104;19.656;2022-12-07T08:26:48;77.10;2227.20
56123;DHT22;42426;46.104;19.656;2022-12-07T08:29:15;77.20;2227.20
56123;DHT22;42426;46.104;19.656;2022-12-07T08:31:41;77.30;2227.20
56123;DHT22;42426;46.104;19.656;2022-12-07T08:37:29;77.40;2227.20
56123;DHT22;42426;46.104;19.656;2022-12-07T08:43:16;77.60;2227.20
56123;DHT22;42426;46.104;19.656;2022-12-07T08:49:57;102.40;2227.20
56123;DHT22;42426;46.104;19.656;2022-12-07T08:59:05;102.60;2227.20
56123;DHT22;42426;46.104;19.656;2022-12-07T09:04:53;102.70;2227.20
56123;DHT22;42426;46.104;19.656;2022-12-07T09:10:39;102.80;2227.20
56123;DHT22;42426;46.104;19.656;2022-12-07T09:16:26;102.90;2227.20
56123;DHT22;42426;46.104;19.656;2022-12-07T09:22:10;103.10;2227.20
56123;DHT22;42426;46.104;19.656;2022-12-07T09:24:36;103.20;2227.20
56123;DHT22;42426;46.104;19.656;2022-12-07T09:27:02;103.20;2227.20
56123;DHT22;42426;46.104;19.656;2022-12-07T09:29:27;103.20;2227.20
56123;DHT22;42426;46.104;19.656;2022-12-07T09:31:53;103.30;2227.20
56123;DHT22;42426;46.104;19.656;2022-12-07T09:34:19;103.30;2227.20
56123;DHT22;42426;46.104;19.656;2022-12-07T09:36:45;103.30;2227.20
56123;DHT22;42426;46.104;19.656;2022-12-07T09:39:11;103.30;2227.20
56123;DHT22;42426;46.104;19.656;2022-12-07T09:41:42;103.30;2227.20
56123;DHT22;42426;46.104;19.656;2022-12-07T09:44:20;128.00;2252.80
56123;DHT22;42426;46.104;19.656;2022-12-07T09:46:47;128.10;2252.80
56123;DHT22;42426;46.104;19.656;2022-12-07T09:49:21;128.10;2252.80
56123;DHT22;42426;46.104;19.656;2022-12-07T09:52:03;128.10;2252.80
56123;DHT22;42426;46.104;19.656;2022-12-07T09:54:45;128.20;2252.80
56123;DHT22;42426;46.104;19.656;2022-12-07T09:57:12;128.20;2252.80
56123;DHT22;42426;46.104;19.656;2022-12-07T09:59:41;128.20;2252.80
56123;DHT22;42426;46.104;19.656;2022-12-07T10:05:03;128.30;2252.80
56123;DHT22;42426;46.104;19.656;2022-12-07T10:07:31;128.30;2252.80
56123;DHT22;42426;46.104;19.656;2022-12-07T10:09:57;128.20;2252.80
56123;DHT22;42426;46.104;19.656;2022-12-07T10:12:23;128.30;2252.80
56123;DHT22;42426;46.104;19.656;2022-12-07T10:15:01;128.40;2252.80
56123;DHT22;42426;46.104;19.656;2022-12-07T10:17:41;128.50;2252.80
56123;DHT22;42426;46.104;19.656;2022-12-07T10:20:27;128.50;2252.80
56123;DHT22;42426;46.104;19.656;2022-12-07T10:22:56;128.60;2252.80
56123;DHT22;42426;46.104;19.656;2022-12-07T10:25:25;128.80;2252.80
56123;DHT22;42426;46.104;19.656;2022-12-07T10:28:00;128.90;2252.80
56123;DHT22;42426;46.104;19.656;2022-12-07T10:30:26;128.90;2252.80
56123;DHT22;42426;46.104;19.656;2022-12-07T10:32:52;153.70;2252.80
56123;DHT22;42426;46.104;19.656;2022-12-07T10:35:25;153.80;2252.80
56123;DHT22;42426;46.104;19.656;2022-12-07T10:37:52;153.70;2252.80
56123;DHT22;42426;46.104;19.656;2022-12-07T10:40:35;153.60;2252.80
56123;DHT22;42426;46.104;19.656;2022-12-07T10:45:30;153.70;2252.80
56123;DHT22;42426;46.104;19.656;2022-12-07T11:10:26;154.10;2252.80
56123;DHT22;42426;46.104;19.656;2022-12-07T11:18:26;154.00;2252.80
56123;DHT22;42426;46.104;19.656;2022-12-07T11:21:07;154.10;2252.80
56123;DHT22;42426;46.104;19.656;2022-12-07T11:36:56;154.10;2252.80
56123;DHT22;42426;46.104;19.656;2022-12-07T11:41:52;154.20;2252.80
56123;DHT22;42426;46.104;19.656;2022-12-07T11:44:34;154.20;2252.80
56123;DHT22;42426;46.104;19.656;2022-12-07T11:54:54;154.50;2252.80
56123;DHT22;42426;46.104;19.656;2022-12-07T11:57:32;154.50;2252.80
56123;DHT22;42426;46.104;19.656;2022-12-07T12:00:05;154.50;2252.80
56123;DHT22;42426;46.104;19.656;2022-12-07T12:02:37;154.50;2252.80
56123;DHT22;42426;46.104;19.656;2022-12-07T12:05:13;179.20;2252.80
56123;DHT22;42426;46.104;19.656;2022-12-07T12:07:39;179.30;2252.80
56123;DHT22;42426;46.104;19.656;2022-12-07T12:10:21;179.30;2252.80
56123;DHT22;42426;46.104;19.656;2022-12-07T12:13:14;179.30;2252.80
56123;DHT22;42426;46.104;19.656;2022-12-07T12:21:17;179.50;2252.80
56123;DHT22;42426;46.104;19.656;2022-12-07T12:24:04;179.50;2252.80
56123;DHT22;42426;46.104;19.656;2022-12-07T12:26:33;179.50;2252.80
56123;DHT22;42426;46.104;19.656;2022-12-07T12:29:06;179.60;2252.80
56123;DHT22;42426;46.104;19.656;2022-12-07T12:31:40;179.60;2252.80
56123;DHT22;42426;46.104;19.656;2022-12-07T12:34:40;179.60;2252.80
56123;DHT22;42426;46.104;19.656;2022-12-07T12:42:56;179.60;2252.80
56123;DHT22;42426;46.104;19.656;2022-12-07T12:45:31;179.60;2252.80
56123;DHT22;42426;46.104;19.656;2022-12-07T12:50:36;179.60;2252.80
56123;DHT22;42426;46.104;19.656;2022-12-07T12:53:24;179.60;2252.80
56123;DHT22;42426;46.104;19.656;2022-12-07T13:03:54;179.60;2252.80
56123;DHT22;42426;46.104;19.656;2022-12-07T13:06:35;179.60;2252.80
56123;DHT22;42426;46.104;19.656;2022-12-07T13:09:03;179.60;2252.80
56123;DHT22;42426;46.104;19.656;2022-12-07T13:11:35;179.50;2252.80
56123;DHT22;42426;46.104;19.656;2022-12-07T13:15:23;179.50;2252.80
56123;DHT22;42426;46.104;19.656;2022-12-07T13:20:01;179.60;2252.80
56123;DHT22;42426;46.104;19.656;2022-12-07T13:27:37;179.60;2252.80
56123;DHT22;42426;46.104;19.656;2022-12-07T13:30:17;179.60;2252.80
56123;DHT22;42426;46.104;19.656;2022-12-07T13:32:52;179.60;2252.80
56123;DHT22;42426;46.104;19.656;2022-12-07T13:38:29;179.60;2252.80
56123;DHT22;42426;46.104;19.656;2022-12-07T13:41:04;179.50;2252.80
56123;DHT22;42426;46.104;19.656;2022-12-07T13:43:30;179.50;2252.80
56123;DHT22;42426;46.104;19.656;2022-12-07T13:45:58;179.50;2252.80
56123;DHT22;42426;46.104;19.656;2022-12-07T13:48:33;179.50;2252.80
56123;DHT22;42426;46.104;19.656;2022-12-07T13:51:02;179.50;2252.80
56123;DHT22;42426;46.104;19.656;2022-12-07T13:53:29;179.50;2252.80
56123;DHT22;42426;46.104;19.656;2022-12-07T13:56:00;179.50;2252.80
56123;DHT22;42426;46.104;19.656;2022-12-07T13:58:30;179.50;2252.80
56123;DHT22;42426;46.104;19.656;2022-12-07T14:00:57;179.50;2252.80
56123;DHT22;42426;46.104;19.656;2022-12-07T14:03:34;179.50;2252.80
56123;DHT22;42426;46.104;19.656;2022-12-07T14:06:26;179.50;2252.80
56123;DHT22;42426;46.104;19.656;2022-12-07T14:09:14;179.50;2252.80
56123;DHT22;42426;46.104;19.656;2022-12-07T14:11:41;179.50;2252.80
56123;DHT22;42426;46.104;19.656;2022-12-07T14:14:23;179.50;2252.80
56123;DHT22;42426;46.104;19.656;2022-12-07T14:17:01;179.50;2252.80
56123;DHT22;42426;46.104;19.656;2022-12-07T14:30:16;179.40;2252.80
56123;DHT22;42426;46.104;19.656;2022-12-07T14:32:42;179.30;2252.80
56123;DHT22;42426;46.104;19.656;2022-12-07T14:35:15;179.30;2252.80
56123;DHT22;42426;46.104;19.656;2022-12-07T14:37:44;179.30;2252.80
56123;DHT22;42426;46.104;19.656;2022-12-07T14:40:15;179.30;2252.80
56123;DHT22;42426;46.104;19.656;2022-12-07T14:42:45;179.30;2252.80
56123;DHT22;42426;46.104;19.656;2022-12-07T14:45:17;179.30;2252.80
56123;DHT22;42426;46.104;19.656;2022-12-07T14:47:44;179.30;2252.80
56123;DHT22;42426;46.104;19.656;2022-12-07T14:50:12;179.30;2252.80
56123;DHT22;42426;46.104;19.656;2022-12-07T14:52:39;179.20;2252.80
56123;DHT22;42426;46.104;19.656;2022-12-07T14:57:51;179.20;2252.80
56123;DHT22;42426;46.104;19.656;2022-12-07T15:00:17;154.50;2252.80
56123;DHT22;42426;46.104;19.656;2022-12-07T15:02:46;154.50;2252.80
56123;DHT22;42426;46.104;19.656;2022-12-07T15:05:12;154.50;2252.80
56123;DHT22;42426;46.104;19.656;2022-12-07T15:07:39;154.50;2252.80
56123;DHT22;42426;46.104;19.656;2022-12-07T15:10:10;154.50;2252.80
56123;DHT22;42426;46.104;19.656;2022-12-07T15:12:38;154.50;2252.80
56123;DHT22;42426;46.104;19.656;2022-12-07T15:15:04;154.40;2252.80
56123;DHT22;42426;46.104;19.656;2022-12-07T15:17:30;154.40;2252.80
56123;DHT22;42426;46.104;19.656;2022-12-07T15:19:56;154.40;2252.80
56123;DHT22;42426;46.104;19.656;2022-12-07T15:22:22;154.40;2252.80
56123;DHT22;42426;46.104;19.656;2022-12-07T15:24:48;154.40;2252.80
56123;DHT22;42426;46.104;19.656;2022-12-07T15:27:13;154.40;2252.80
56123;DHT22;42426;46.104;19.656;2022-12-07T15:29:40;154.40;2252.80
56123;DHT22;42426;46.104;19.656;2022-12-07T15:32:06;154.40;2252.80
56123;DHT22;42426;46.104;19.656;2022-12-07T15:34:32;154.30;2252.80
56123;DHT22;42426;46.104;19.656;2022-12-07T15:36:57;154.40;2252.80
56123;DHT22;42426;46.104;19.656;2022-12-07T15:39:23;154.40;2252.80
56123;DHT22;42426;46.104;19.656;2022-12-07T15:41:49;154.30;2252.80
56123;DHT22;42426;46.104;19.656;2022-12-07T15:44:18;154.30;2252.80
56123;DHT22;42426;46.104;19.656;2022-12-07T15:47:02;154.30;2252.80
56123;DHT22;42426;46.104;19.656;2022-12-07T15:49:29;154.20;2252.80
56123;DHT22;42426;46.104;19.656;2022-12-07T15:51:55;154.30;2252.80
56123;DHT22;42426;46.104;19.656;2022-12-07T15:54:26;154.30;2252.80
56123;DHT22;42426;46.104;19.656;2022-12-07T15:56:52;154.20;2252.80
56123;DHT22;42426;46.104;19.656;2022-12-07T15:59:18;154.20;2252.80
56123;DHT22;42426;46.104;19.656;2022-12-07T16:01:44;154.20;2252.80
56123;DHT22;42426;46.104;19.656;2022-12-07T16:04:10;154.20;2252.80
56123;DHT22;42426;46.104;19.656;2022-12-07T16:06:36;154.20;2252.80
56123;DHT22;42426;46.104;19.656;2022-12-07T16:09:03;154.20;2252.80
56123;DHT22;42426;46.104;19.656;2022-12-07T16:11:28;154.20;2252.80
56123;DHT22;42426;46.104;19.656;2022-12-07T16:13:54;154.20;2252.80
56123;DHT22;42426;46.104;19.656;2022-12-07T16:16:20;154.20;2252.80
56123;DHT22;42426;46.104;19.656;2022-12-07T16:18:49;154.20;2252.80
56123;DHT22;42426;46.104;19.656;2022-12-07T16:21:16;154.20;2252.80
56123;DHT22;42426;46.104;19.656;2022-12-07T16:23:42;154.10;2252.80
56123;DHT22;42426;46.104;19.656;2022-12-07T16:26:16;154.20;2252.80
56123;DHT22;42426;46.104;19.656;2022-12-07T16:28:43;154.20;2252.80
56123;DHT22;42426;46.104;19.656;2022-12-07T16:31:12;154.10;2252.80
56123;DHT22;42426;46.104;19.656;2022-12-07T16:33:39;154.10;2252.80
56123;DHT22;42426;46.104;19.656;2022-12-07T16:36:07;154.00;2252.80
56123;DHT22;42426;46.104;19.656;2022-12-07T16:38:34;154.00;2252.80
56123;DHT22;42426;46.104;19.656;2022-12-07T16:41:00;154.00;2252.80
56123;DHT22;42426;46.104;19.656;2022-12-07T16:43:26;154.00;2252.80
56123;DHT22;42426;46.104;19.656;2022-12-07T16:45:51;154.00;2252.80
56123;DHT22;42426;46.104;19.656;2022-12-07T16:48:18;153.90;2252.80
56123;DHT22;42426;46.104;19.656;2022-12-07T16:50:45;154.00;2252.80
56123;DHT22;42426;46.104;19.656;2022-12-07T16:53:14;153.90;2252.80
56123;DHT22;42426;46.104;19.656;2022-12-07T16:55:44;154.00;2252.80
56123;DHT22;42426;46.104;19.656;2022-12-07T16:58:11;153.90;2252.80
56123;DHT22;42426;46.104;19.656;2022-12-07T17:00:37;154.00;2252.80
56123;DHT22;42426;46.104;19.656;2022-12-07T17:03:03;154.00;2252.80
56123;DHT22;42426;46.104;19.656;2022-12-07T17:05:29;153.90;2252.80
56123;DHT22;42426;46.104;19.656;2022-12-07T17:07:56;154.00;2252.80
56123;DHT22;42426;46.104;19.656;2022-12-07T17:10:24;154.00;2252.80
56123;DHT22;42426;46.104;19.656;2022-12-07T17:12:50;154.00;2252.80
56123;DHT22;42426;46.104;19.656;2022-12-07T17:15:17;153.90;2252.80
56123;DHT22;42426;46.104;19.656;2022-12-07T17:17:54;153.90;2252.80
56123;DHT22;42426;46.104;19.656;2022-12-07T17:20:23;153.90;2252.80
56123;DHT22;42426;46.104;19.656;2022-12-07T17:26:16;153.90;2252.80
56123;DHT22;42426;46.104;19.656;2022-12-07T17:32:05;153.80;2252.80
56123;DHT22;42426;46.104;19.656;2022-12-07T17:37:53;153.80;2252.80
56123;DHT22;42426;46.104;19.656;2022-12-07T17:43:40;153.80;2252.80
56123;DHT22;42426;46.104;19.656;2022-12-07T17:49:28;153.80;2252.80
56123;DHT22;42426;46.104;19.656;2022-12-07T17:58:44;153.70;2252.80
56123;DHT22;42426;46.104;19.656;2022-12-07T18:04:32;153.70;2252.80
56123;DHT22;42426;46.104;19.656;2022-12-07T18:10:19;153.70;2252.80
56123;DHT22;42426;46.104;19.656;2022-12-07T18:16:16;153.70;2252.80
56123;DHT22;42426;46.104;19.656;2022-12-07T18:22:04;153.60;2252.80
56123;DHT22;42426;46.104;19.656;2022-12-07T18:27:52;153.60;2252.80
56123;DHT22;42426;46.104;19.656;2022-12-07T18:33:41;153.60;2252.80
56123;DHT22;42426;46.104;19.656;2022-12-07T18:39:28;128.90;2252.80
56123;DHT22;42426;46.104;19.656;2022-12-07T18:45:16;128.90;2252.80